sensor_id;sensor_type;location;lat;lon;timestamp;temperature;humidity
59234;DHT22;60776;51.702;7.462;2023-09-12T00:01:45;24.10;99.90
59234;DHT22;60776;51.702;7.462;2023-09-12T00:04:11;24.10;99.90
59234;DHT22;60776;51.702;7.462;2023-09-12T00:06:37;24.10;99.90
59234;DHT22;60776;51.702;7.462;2023-09-12T00:09:05;24.10;99.90
59234;DHT22;60776;51.702;7.462;2023-09-12T00:11:34;24.00;99.90
59234;DHT22;60776;51.702;7.462;2023-09-12T00:13:59;23.90;99.90
59234;DHT22;60776;51.702;7.462;2023-09-12T00:16:27;24.00;99.90
59234;DHT22;60776;51.702;7.462;2023-09-12T00:18:53;23.90;99.90
59234;DHT22;60776;51.702;7.462;2023-09-12T00:21:19;23.90;99.90
59234;DHT22;60776;51.702;7.462;2023-09-12T00:23:44;23.90;99.90
59234;DHT22;60776;51.702;7.462;2023-09-12T00:26:10;23.80;99.90
59234;DHT22;60776;51.702;7.462;2023-09-12T00:28:36;23.80;99.90
59234;DHT22;60776;51.702;7.462;2023-09-12T00:31:02;23.80;99.90
59234;DHT22;60776;51.702;7.462;2023-09-12T00:33:28;23.80;99.90
59234;DHT22;60776;51.702;7.462;2023-09-12T00:35:54;23.80;99.90
59234;DHT22;60776;51.702;7.462;2023-09-12T00:38:19;23.80;99.90
59234;DHT22;60776;51.702;7.462;2023-09-12T00:40:45;23.70;99.90
59234;DHT22;60776;51.702;7.462;2023-09-12T00:43:11;23.70;99.90
59234;DHT22;60776;51.702;7.462;2023-09-12T00:45:36;23.70;99.90
59234;DHT22;60776;51.702;7.462;2023-09-12T00:48:04;23.70;99.90
59234;DHT22;60776;51.702;7.462;2023-09-12T00:50:31;23.60;99.90
59234;DHT22;60776;51.702;7.462;2023-09-12T00:52:57;23.50;99.90
59234;DHT22;60776;51.702;7.462;2023-09-12T00:55:24;23.50;99.90
59234;DHT22;60776;51.702;7.462;2023-09-12T00:57:49;23.40;99.90
59234;DHT22;60776;51.702;7.462;2023-09-12T01:00:16;23.40;99.90
59234;DHT22;60776;51.702;7.462;2023-09-12T01:02:43;23.50;99.90
59234;DHT22;60776;51.702;7.462;2023-09-12T01:05:11;23.60;99.90
59234;DHT22;60776;51.702;7.462;2023-09-12T01:07:38;23.70;99.90
59234;DHT22;60776;51.702;7.462;2023-09-12T01:10:07;23.70;99.90
59234;DHT22;60776;51.702;7.462;2023-09-12T01:12:33;23.70;99.90
59234;DHT22;60776;51.702;7.462;2023-09-12T01:14:59;23.70;99.90
59234;DHT22;60776;51.702;7.462;2023-09-12T01:17:26;23.60;99.90
59234;DHT22;60776;51.702;7.462;2023-09-12T01:19:52;23.60;99.90
59234;DHT22;60776;51.702;7.462;2023-09-12T01:22:26;23.50;99.90
59234;DHT22;60776;51.702;7.462;2023-09-12T01:27:52;23.40;99.90
59234;DHT22;60776;51.702;7.462;2023-09-12T01:30:20;23.50;99.90
59234;DHT22;60776;51.702;7.462;2023-09-12T01:32:47;23.50;99.90
59234;DHT22;60776;51.702;7.462;2023-09-12T01:35:13;23.50;99.90
59234;DHT22;60776;51.702;7.462;2023-09-12T01:37:39;23.30;99.90
59234;DHT22;60776;51.702;7.462;2023-09-12T01:40:06;23.00;99.90
59234;DHT22;60776;51.702;7.462;2023-09-12T01:42:37;22.80;99.90
59234;DHT22;60776;51.702;7.462;2023-09-12T01:45:04;22.60;99.90
59234;DHT22;60776;51.702;7.462;2023-09-12T01:47:33;22.30;99.90
59234;DHT22;60776;51.702;7.462;2023-09-12T01:50:00;21.90;99.90
59234;DHT22;60776;51.702;7.462;2023-09-12T01:52:27;21.70;99.90
59234;DHT22;60776;51.702;7.462;2023-09-12T01:54:54;21.50;99.90
59234;DHT22;60776;51.702;7.462;2023-09-12T01:57:23;21.50;99.90
59234;DHT22;60776;51.702;7.462;2023-09-12T01:59:49;21.50;99.90
59234;DHT22;60776;51.702;7.462;2023-09-12T02:02:16;21.70;99.90
59234;DHT22;60776;51.702;7.462;2023-09-12T02:04:45;21.80;99.90
59234;DHT22;60776;51.702;7.462;2023-09-12T02:07:12;22.00;99.90
59234;DHT22;60776;51.702;7.462;2023-09-12T02:09:38;22.10;99.90
59234;DHT22;60776;51.702;7.462;2023-09-12T02:12:04;22.20;99.90
59234;DHT22;60776;51.702;7.462;2023-09-12T02:14:29;22.20;99.90
59234;DHT22;60776;51.702;7.462;2023-09-12T02:16:55;22.20;99.90
59234;DHT22;60776;51.702;7.462;2023-09-12T02:19:20;22.20;99.90
59234;DHT22;60776;51.702;7.462;2023-09-12T02:21:46;22.20;99.90
59234;DHT22;60776;51.702;7.462;2023-09-12T02:24:12;22.20;99.90
59234;DHT22;60776;51.702;7.462;2023-09-12T02:26:37;22.30;99.90
59234;DHT22;60776;51.702;7.462;2023-09-12T02:29:03;22.40;99.90
59234;DHT22;60776;51.702;7.462;2023-09-12T02:31:31;22.40;99.90
59234;DHT22;60776;51.702;7.462;2023-09-12T02:33:57;22.40;99.90
59234;DHT22;60776;51.702;7.462;2023-09-12T02:36:22;22.50;99.90
59234;DHT22;60776;51.702;7.462;2023-09-12T02:38:48;22.60;99.90
59234;DHT22;60776;51.702;7.462;2023-09-12T02:41:13;22.60;99.90
59234;DHT22;60776;51.702;7.462;2023-09-12T02:43:39;22.50;99.90
59234;DHT22;60776;51.702;7.462;2023-09-12T02:46:05;22.40;99.90
59234;DHT22;60776;51.702;7.462;2023-09-12T02:48:30;22.30;99.90
59234;DHT22;60776;51.702;7.462;2023-09-12T02:50:59;22.30;99.90
59234;DHT22;60776;51.702;7.462;2023-09-12T02:53:24;22.10;99.90
59234;DHT22;60776;51.702;7.462;2023-09-12T02:55:51;21.60;99.90
59234;DHT22;60776;51.702;7.462;2023-09-12T02:58:17;20.80;99.90
59234;DHT22;60776;51.702;7.462;2023-09-12T03:00:43;20.50;99.90
59234;DHT22;60776;51.702;7.462;2023-09-12T03:03:08;20.20;99.90
59234;DHT22;60776;51.702;7.462;2023-09-12T03:05:35;20.10;99.90
59234;DHT22;60776;51.702;7.462;2023-09-12T03:08:01;20.10;99.90
59234;DHT22;60776;51.702;7.462;2023-09-12T03:10:27;20.30;99.90
59234;DHT22;60776;51.702;7.462;2023-09-12T03:12:53;20.50;99.90
59234;DHT22;60776;51.702;7.462;2023-09-12T03:15:19;20.70;99.90
59234;DHT22;60776;51.702;7.462;2023-09-12T03:17:45;20.70;99.90
59234;DHT22;60776;51.702;7.462;2023-09-12T03:20:11;20.60;99.90
59234;DHT22;60776;51.702;7.462;2023-09-12T03:22:37;20.40;99.90
59234;DHT22;60776;51.702;7.462;2023-09-12T03:25:04;20.30;99.90
59234;DHT22;60776;51.702;7.462;2023-09-12T03:27:31;20.30;99.90
59234;DHT22;60776;51.702;7.462;2023-09-12T03:29:57;20.40;99.90
59234;DHT22;60776;51.702;7.462;2023-09-12T03:32:23;20.50;99.90
59234;DHT22;60776;51.702;7.462;2023-09-12T03:34:49;20.50;99.90
59234;DHT22;60776;51.702;7.462;2023-09-12T03:37:14;20.60;99.90
59234;DHT22;60776;51.702;7.462;2023-09-12T03:39:41;20.60;99.90
59234;DHT22;60776;51.702;7.462;2023-09-12T03:42:06;20.60;99.90
59234;DHT22;60776;51.702;7.462;2023-09-12T03:44:32;20.00;99.90
59234;DHT22;60776;51.702;7.462;2023-09-12T03:46:58;19.80;99.90
59234;DHT22;60776;51.702;7.462;2023-09-12T03:49:23;19.60;99.90
59234;DHT22;60776;51.702;7.462;2023-09-12T03:51:49;19.40;99.90
59234;DHT22;60776;51.702;7.462;2023-09-12T03:54:15;19.20;99.90
59234;DHT22;60776;51.702;7.462;2023-09-12T03:56:40;19.20;99.90
59234;DHT22;60776;51.702;7.462;2023-09-12T03:59:06;19.30;99.90
59234;DHT22;60776;51.702;7.462;2023-09-12T04:01:32;19.40;99.90
59234;DHT22;60776;51.702;7.462;2023-09-12T04:03:58;19.40;99.90
59234;DHT22;60776;51.702;7.462;2023-09-12T04:06:23;19.50;99.90
59234;DHT22;60776;51.702;7.462;2023-09-12T04:08:49;19.40;99.90
59234;DHT22;60776;51.702;7.462;2023-09-12T04:11:15;19.20;99.90
59234;DHT22;60776;51.702;7.462;2023-09-12T04:13:40;19.20;99.90
59234;DHT22;60776;51.702;7.462;2023-09-12T04:16:06;19.20;99.90
59234;DHT22;60776;51.702;7.462;2023-09-12T04:18:32;19.10;99.90
59234;DHT22;60776;51.702;7.462;2023-09-12T04:20:57;19.00;99.90
59234;DHT22;60776;51.702;7.462;2023-09-12T04:23:24;19.00;99.90
59234;DHT22;60776;51.702;7.462;2023-09-12T04:25:50;19.00;99.90
59234;DHT22;60776;51.702;7.462;2023-09-12T04:28:16;19.00;99.90
59234;DHT22;60776;51.702;7.462;2023-09-12T04:30:41;19.10;99.90
59234;DHT22;60776;51.702;7.462;2023-09-12T04:33:07;19.20;99.90
59234;DHT22;60776;51.702;7.462;2023-09-12T04:35:36;19.30;99.90
59234;DHT22;60776;51.702;7.462;2023-09-12T04:38:02;19.40;99.90
59234;DHT22;60776;51.702;7.462;2023-09-12T04:40:28;19.30;99.90
59234;DHT22;60776;51.702;7.462;2023-09-12T04:42:54;19.30;99.90
59234;DHT22;60776;51.702;7.462;2023-09-12T04:45:20;19.20;99.90
59234;DHT22;60776;51.702;7.462;2023-09-12T04:47:45;19.20;99.90
59234;DHT22;60776;51.702;7.462;2023-09-12T04:50:11;19.20;99.90
59234;DHT22;60776;51.702;7.462;2023-09-12T04:52:39;19.10;99.90
59234;DHT22;60776;51.702;7.462;2023-09-12T04:55:05;19.10;99.90
59234;DHT22;60776;51.702;7.462;2023-09-12T04:57:31;19.20;99.90
59234;DHT22;60776;51.702;7.462;2023-09-12T04:59:58;19.30;99.90
59234;DHT22;60776;51.702;7.462;2023-09-12T05:02:24;19.40;99.90
59234;DHT22;60776;51.702;7.462;2023-09-12T05:04:51;19.30;99.90
59234;DHT22;60776;51.702;7.462;2023-09-12T05:07:16;19.40;99.90
59234;DHT22;60776;51.702;7.462;2023-09-12T05:09:42;19.50;99.90
59234;DHT22;60776;51.702;7.462;2023-09-12T05:12:08;19.50;99.90
59234;DHT22;60776;51.702;7.462;2023-09-12T05:14:34;19.40;99.90
59234;DHT22;60776;51.702;7.462;2023-09-12T05:16:59;19.40;99.90
59234;DHT22;60776;51.702;7.462;2023-09-12T05:19:27;19.40;99.90
59234;DHT22;60776;51.702;7.462;2023-09-12T05:21:52;19.50;99.90
59234;DHT22;60776;51.702;7.462;2023-09-12T05:24:18;19.50;99.90
59234;DHT22;60776;51.702;7.462;2023-09-12T05:26:44;19.50;99.90
59234;DHT22;60776;51.702;7.462;2023-09-12T05:29:09;19.50;99.90
59234;DHT22;60776;51.702;7.462;2023-09-12T05:31:35;19.60;99.90
59234;DHT22;60776;51.702;7.462;2023-09-12T05:34:01;19.70;99.90
59234;DHT22;60776;51.702;7.462;2023-09-12T05:36:26;19.60;99.90
59234;DHT22;60776;51.702;7.462;2023-09-12T05:38:59;19.70;99.90
59234;DHT22;60776;51.702;7.462;2023-09-12T05:41:25;19.90;99.90
59234;DHT22;60776;51.702;7.462;2023-09-12T05:43:50;20.00;99.90
59234;DHT22;60776;51.702;7.462;2023-09-12T05:46:16;20.10;99.90
59234;DHT22;60776;51.702;7.462;2023-09-12T05:48:41;20.20;99.90
59234;DHT22;60776;51.702;7.462;2023-09-12T05:51:07;20.30;99.90
59234;DHT22;60776;51.702;7.462;2023-09-12T05:53:33;20.40;99.90
59234;DHT22;60776;51.702;7.462;2023-09-12T05:55:58;20.40;99.90
59234;DHT22;60776;51.702;7.462;2023-09-12T05:58:24;20.50;99.90
59234;DHT22;60776;51.702;7.462;2023-09-12T06:00:55;20.60;99.90
59234;DHT22;60776;51.702;7.462;2023-09-12T06:03:21;20.60;99.90
59234;DHT22;60776;51.702;7.462;2023-09-12T06:05:46;20.60;99.90
59234;DHT22;60776;51.702;7.462;2023-09-12T06:08:12;20.50;99.90
59234;DHT22;60776;51.702;7.462;2023-09-12T06:10:38;20.40;99.90
59234;DHT22;60776;51.702;7.462;2023-09-12T06:13:03;20.30;99.90
59234;DHT22;60776;51.702;7.462;2023-09-12T06:15:29;20.20;99.90
59234;DHT22;60776;51.702;7.462;2023-09-12T06:17:55;20.10;99.90
59234;DHT22;60776;51.702;7.462;2023-09-12T06:20:20;20.00;99.90
59234;DHT22;60776;51.702;7.462;2023-09-12T06:22:47;20.10;99.90
59234;DHT22;60776;51.702;7.462;2023-09-12T06:25:12;20.20;99.90
59234;DHT22;60776;51.702;7.462;2023-09-12T06:27:38;20.30;99.90
59234;DHT22;60776;51.702;7.462;2023-09-12T06:30:04;20.30;99.90
59234;DHT22;60776;51.702;7.462;2023-09-12T06:32:30;20.40;99.90
59234;DHT22;60776;51.702;7.462;2023-09-12T06:34:55;20.40;99.90
59234;DHT22;60776;51.702;7.462;2023-09-12T06:37:21;20.40;99.90
59234;DHT22;60776;51.702;7.462;2023-09-12T06:39:49;20.40;99.90
59234;DHT22;60776;51.702;7.462;2023-09-12T06:42:16;20.30;99.90
59234;DHT22;60776;51.702;7.462;2023-09-12T06:44:41;20.30;99.90
59234;DHT22;60776;51.702;7.462;2023-09-12T06:47:07;20.40;99.90
59234;DHT22;60776;51.702;7.462;2023-09-12T06:49:32;20.50;99.90
59234;DHT22;60776;51.702;7.462;2023-09-12T06:51:58;20.50;99.90
59234;DHT22;60776;51.702;7.462;2023-09-12T06:54:24;20.60;99.90
59234;DHT22;60776;51.702;7.462;2023-09-12T06:56:49;20.70;99.90
59234;DHT22;60776;51.702;7.462;2023-09-12T06:59:15;20.90;99.90
59234;DHT22;60776;51.702;7.462;2023-09-12T07:01:41;20.90;99.90
59234;DHT22;60776;51.702;7.462;2023-09-12T07:04:06;20.80;99.90
59234;DHT22;60776;51.702;7.462;2023-09-12T07:06:32;20.70;99.90
59234;DHT22;60776;51.702;7.462;2023-09-12T07:08:58;20.70;99.90
59234;DHT22;60776;51.702;7.462;2023-09-12T07:11:24;20.70;99.90
59234;DHT22;60776;51.702;7.462;2023-09-12T07:13:50;20.60;99.90
59234;DHT22;60776;51.702;7.462;2023-09-12T07:16:15;20.40;99.90
59234;DHT22;60776;51.702;7.462;2023-09-12T07:18:41;20.10;99.90
59234;DHT22;60776;51.702;7.462;2023-09-12T07:21:07;19.70;99.90
59234;DHT22;60776;51.702;7.462;2023-09-12T07:23:33;19.80;99.90
59234;DHT22;60776;51.702;7.462;2023-09-12T07:25:59;19.90;99.90
59234;DHT22;60776;51.702;7.462;2023-09-12T07:28:25;20.00;99.90
59234;DHT22;60776;51.702;7.462;2023-09-12T07:30:51;20.00;99.90
59234;DHT22;60776;51.702;7.462;2023-09-12T07:33:17;20.10;99.90
59234;DHT22;60776;51.702;7.462;2023-09-12T07:35:42;20.00;99.90
59234;DHT22;60776;51.702;7.462;2023-09-12T07:38:08;19.90;99.90
59234;DHT22;60776;51.702;7.462;2023-09-12T07:40:34;19.70;99.90
59234;DHT22;60776;51.702;7.462;2023-09-12T07:42:59;19.50;99.90
59234;DHT22;60776;51.702;7.462;2023-09-12T07:45:25;19.40;99.90
59234;DHT22;60776;51.702;7.462;2023-09-12T07:47:51;19.30;99.90
59234;DHT22;60776;51.702;7.462;2023-09-12T07:50:16;19.30;99.90
59234;DHT22;60776;51.702;7.462;2023-09-12T07:52:42;19.40;99.90
59234;DHT22;60776;51.702;7.462;2023-09-12T07:55:08;19.40;99.90
59234;DHT22;60776;51.702;7.462;2023-09-12T07:57:34;19.40;99.90
59234;DHT22;60776;51.702;7.462;2023-09-12T08:00:00;19.50;99.90
59234;DHT22;60776;51.702;7.462;2023-09-12T08:02:26;19.50;99.90
59234;DHT22;60776;51.702;7.462;2023-09-12T08:04:52;19.60;99.90
59234;DHT22;60776;51.702;7.462;2023-09-12T08:07:19;19.80;99.90
59234;DHT22;60776;51.702;7.462;2023-09-12T08:09:52;19.90;99.90
59234;DHT22;60776;51.702;7.462;2023-09-12T08:12:19;20.00;99.90
59234;DHT22;60776;51.702;7.462;2023-09-12T08:14:45;20.10;99.90
59234;DHT22;60776;51.702;7.462;2023-09-12T08:17:12;20.20;99.90
59234;DHT22;60776;51.702;7.462;2023-09-12T08:19:38;20.00;99.90
59234;DHT22;60776;51.702;7.462;2023-09-12T08:22:05;19.90;99.90
59234;DHT22;60776;51.702;7.462;2023-09-12T08:24:31;19.70;99.90
59234;DHT22;60776;51.702;7.462;2023-09-12T08:26:56;19.70;99.90
59234;DHT22;60776;51.702;7.462;2023-09-12T08:29:22;19.70;99.90
59234;DHT22;60776;51.702;7.462;2023-09-12T08:31:48;19.70;99.90
59234;DHT22;60776;51.702;7.462;2023-09-12T08:34:14;19.70;99.90
59234;DHT22;60776;51.702;7.462;2023-09-12T08:36:40;19.90;99.90
59234;DHT22;60776;51.702;7.462;2023-09-12T08:39:06;19.90;99.90
59234;DHT22;60776;51.702;7.462;2023-09-12T08:41:34;19.80;99.90
59234;DHT22;60776;51.702;7.462;2023-09-12T08:44:01;20.00;99.90
59234;DHT22;60776;51.702;7.462;2023-09-12T08:46:27;20.10;99.90
59234;DHT22;60776;51.702;7.462;2023-09-12T08:48:56;20.20;99.90
59234;DHT22;60776;51.702;7.462;2023-09-12T08:51:23;20.20;99.90
59234;DHT22;60776;51.702;7.462;2023-09-12T08:53:52;20.20;99.90
59234;DHT22;60776;51.702;7.462;2023-09-12T08:56:18;20.10;99.90
59234;DHT22;60776;51.702;7.462;2023-09-12T08:58:44;20.00;99.90
59234;DHT22;60776;51.702;7.462;2023-09-12T09:01:14;19.90;99.90
59234;DHT22;60776;51.702;7.462;2023-09-12T09:03:42;19.80;99.90
59234;DHT22;60776;51.702;7.462;2023-09-12T09:06:10;19.90;99.90
59234;DHT22;60776;51.702;7.462;2023-09-12T09:08:37;19.90;99.90
59234;DHT22;60776;51.702;7.462;2023-09-12T09:11:03;20.10;99.90
59234;DHT22;60776;51.702;7.462;2023-09-12T09:13:31;20.30;99.90
59234;DHT22;60776;51.702;7.462;2023-09-12T09:18:50;20.90;99.90
59234;DHT22;60776;51.702;7.462;2023-09-12T09:21:21;20.90;99.90
59234;DHT22;60776;51.702;7.462;2023-09-12T09:23:50;21.40;99.90
59234;DHT22;60776;51.702;7.462;2023-09-12T09:26:15;22.80;99.90
59234;DHT22;60776;51.702;7.462;2023-09-12T09:28:41;25.20;99.90
59234;DHT22;60776;51.702;7.462;2023-09-12T09:31:11;25.50;99.90
59234;DHT22;60776;51.702;7.462;2023-09-12T09:33:38;25.70;99.90
59234;DHT22;60776;51.702;7.462;2023-09-12T09:36:06;26.90;99.90
59234;DHT22;60776;51.702;7.462;2023-09-12T09:38:34;27.80;99.90
59234;DHT22;60776;51.702;7.462;2023-09-12T09:41:03;27.70;99.90
59234;DHT22;60776;51.702;7.462;2023-09-12T09:43:31;28.10;99.90
59234;DHT22;60776;51.702;7.462;2023-09-12T09:45:57;28.50;99.90
59234;DHT22;60776;51.702;7.462;2023-09-12T09:48:24;28.70;99.90
59234;DHT22;60776;51.702;7.462;2023-09-12T09:50:59;29.80;99.90
59234;DHT22;60776;51.702;7.462;2023-09-12T09:53:29;30.50;99.90
59234;DHT22;60776;51.702;7.462;2023-09-12T09:56:11;31.50;99.90
59234;DHT22;60776;51.702;7.462;2023-09-12T10:01:17;33.20;99.90
59234;DHT22;60776;51.702;7.462;2023-09-12T10:03:47;33.60;99.90
59234;DHT22;60776;51.702;7.462;2023-09-12T10:06:18;34.10;99.90
59234;DHT22;60776;51.702;7.462;2023-09-12T10:08:46;35.00;99.90
59234;DHT22;60776;51.702;7.462;2023-09-12T10:11:16;35.20;99.90
59234;DHT22;60776;51.702;7.462;2023-09-12T10:13:49;35.20;99.90
59234;DHT22;60776;51.702;7.462;2023-09-12T10:16:16;35.90;99.90
59234;DHT22;60776;51.702;7.462;2023-09-12T10:21:35;36.00;99.90
59234;DHT22;60776;51.702;7.462;2023-09-12T10:24:03;34.70;99.90
59234;DHT22;60776;51.702;7.462;2023-09-12T10:26:31;33.80;99.90
59234;DHT22;60776;51.702;7.462;2023-09-12T10:28:57;33.20;99.90
59234;DHT22;60776;51.702;7.462;2023-09-12T10:31:24;32.70;99.90
59234;DHT22;60776;51.702;7.462;2023-09-12T10:33:51;32.50;99.90
59234;DHT22;60776;51.702;7.462;2023-09-12T10:36:18;32.40;99.90
59234;DHT22;60776;51.702;7.462;2023-09-12T10:38:48;32.40;99.90
59234;DHT22;60776;51.702;7.462;2023-09-12T10:41:16;32.10;99.90
59234;DHT22;60776;51.702;7.462;2023-09-12T10:43:44;31.80;99.90
59234;DHT22;60776;51.702;7.462;2023-09-12T10:46:12;31.60;99.90
59234;DHT22;60776;51.702;7.462;2023-09-12T10:48:38;31.60;99.90
59234;DHT22;60776;51.702;7.462;2023-09-12T10:51:07;31.40;99.90
59234;DHT22;60776;51.702;7.462;2023-09-12T10:53:33;31.40;99.90
59234;DHT22;60776;51.702;7.462;2023-09-12T10:56:17;31.30;99.90
59234;DHT22;60776;51.702;7.462;2023-09-12T11:01:42;31.70;99.90
59234;DHT22;60776;51.702;7.462;2023-09-12T11:06:52;32.00;99.90
59234;DHT22;60776;51.702;7.462;2023-09-12T11:09:25;31.90;99.90
59234;DHT22;60776;51.702;7.462;2023-09-12T11:12:04;32.10;99.90
59234;DHT22;60776;51.702;7.462;2023-09-12T11:14:33;32.50;99.90
59234;DHT22;60776;51.702;7.462;2023-09-12T11:19:44;33.50;96.30
59234;DHT22;60776;51.702;7.462;2023-09-12T11:22:26;34.30;96.00
59234;DHT22;60776;51.702;7.462;2023-09-12T11:24:53;34.90;93.00
59234;DHT22;60776;51.702;7.462;2023-09-12T11:27:21;35.50;94.50
59234;DHT22;60776;51.702;7.462;2023-09-12T11:29:48;36.50;91.80
59234;DHT22;60776;51.702;7.462;2023-09-12T11:32:35;37.00;84.40
59234;DHT22;60776;51.702;7.462;2023-09-12T11:35:08;37.70;77.80
59234;DHT22;60776;51.702;7.462;2023-09-12T11:37:34;37.90;71.20
59234;DHT22;60776;51.702;7.462;2023-09-12T11:40:15;37.40;71.90
59234;DHT22;60776;51.702;7.462;2023-09-12T11:42:42;36.50;68.40
59234;DHT22;60776;51.702;7.462;2023-09-12T11:45:09;35.60;71.60
59234;DHT22;60776;51.702;7.462;2023-09-12T11:47:40;35.00;73.00
59234;DHT22;60776;51.702;7.462;2023-09-12T11:50:06;34.40;70.30
59234;DHT22;60776;51.702;7.462;2023-09-12T11:52:36;34.10;71.80
59234;DHT22;60776;51.702;7.462;2023-09-12T11:55:03;33.80;71.40
59234;DHT22;60776;51.702;7.462;2023-09-12T11:57:29;33.60;73.50
59234;DHT22;60776;51.702;7.462;2023-09-12T11:59:56;34.20;74.40
59234;DHT22;60776;51.702;7.462;2023-09-12T12:02:22;34.70;71.70
59234;DHT22;60776;51.702;7.462;2023-09-12T12:04:48;34.90;70.10
59234;DHT22;60776;51.702;7.462;2023-09-12T12:07:15;34.50;70.30
59234;DHT22;60776;51.702;7.462;2023-09-12T12:09:41;34.10;70.20
59234;DHT22;60776;51.702;7.462;2023-09-12T12:12:14;33.80;71.00
59234;DHT22;60776;51.702;7.462;2023-09-12T12:14:41;33.70;72.20
59234;DHT22;60776;51.702;7.462;2023-09-12T12:17:10;33.50;72.70
59234;DHT22;60776;51.702;7.462;2023-09-12T12:19:37;33.30;74.20
59234;DHT22;60776;51.702;7.462;2023-09-12T12:22:04;33.10;75.10
59234;DHT22;60776;51.702;7.462;2023-09-12T12:24:53;33.00;75.30
59234;DHT22;60776;51.702;7.462;2023-09-12T12:27:18;32.60;73.70
59234;DHT22;60776;51.702;7.462;2023-09-12T12:29:45;32.50;76.80
59234;DHT22;60776;51.702;7.462;2023-09-12T12:32:11;32.60;77.60
59234;DHT22;60776;51.702;7.462;2023-09-12T12:34:37;32.90;78.70
59234;DHT22;60776;51.702;7.462;2023-09-12T12:37:03;33.60;78.30
59234;DHT22;60776;51.702;7.462;2023-09-12T12:39:29;34.20;75.00
59234;DHT22;60776;51.702;7.462;2023-09-12T12:41:55;34.70;73.90
59234;DHT22;60776;51.702;7.462;2023-09-12T12:44:21;35.00;72.90
59234;DHT22;60776;51.702;7.462;2023-09-12T12:46:51;35.30;71.20
59234;DHT22;60776;51.702;7.462;2023-09-12T12:49:18;35.60;67.90
59234;DHT22;60776;51.702;7.462;2023-09-12T12:51:45;35.70;67.80
59234;DHT22;60776;51.702;7.462;2023-09-12T12:54:11;35.70;66.40
59234;DHT22;60776;51.702;7.462;2023-09-12T12:56:37;35.40;66.10
59234;DHT22;60776;51.702;7.462;2023-09-12T12:59:05;35.60;66.00
59234;DHT22;60776;51.702;7.462;2023-09-12T13:01:36;35.80;66.80
59234;DHT22;60776;51.702;7.462;2023-09-12T13:04:05;36.20;64.10
59234;DHT22;60776;51.702;7.462;2023-09-12T13:06:31;36.20;63.90
59234;DHT22;60776;51.702;7.462;2023-09-12T13:09:01;36.30;63.90
59234;DHT22;60776;51.702;7.462;2023-09-12T13:11:30;36.20;63.80
59234;DHT22;60776;51.702;7.462;2023-09-12T13:13:55;36.10;63.80
59234;DHT22;60776;51.702;7.462;2023-09-12T13:16:22;35.70;63.40
59234;DHT22;60776;51.702;7.462;2023-09-12T13:18:47;35.00;62.20
59234;DHT22;60776;51.702;7.462;2023-09-12T13:21:13;34.40;65.40
59234;DHT22;60776;51.702;7.462;2023-09-12T13:23:39;34.30;67.00
59234;DHT22;60776;51.702;7.462;2023-09-12T13:26:06;34.00;68.10
59234;DHT22;60776;51.702;7.462;2023-09-12T13:28:32;33.60;69.00
59234;DHT22;60776;51.702;7.462;2023-09-12T13:30:58;33.30;70.80
59234;DHT22;60776;51.702;7.462;2023-09-12T13:33:24;33.10;71.10
59234;DHT22;60776;51.702;7.462;2023-09-12T13:35:49;32.90;71.80
59234;DHT22;60776;51.702;7.462;2023-09-12T13:38:16;32.60;73.10
59234;DHT22;60776;51.702;7.462;2023-09-12T13:40:44;32.50;73.60
59234;DHT22;60776;51.702;7.462;2023-09-12T13:43:10;32.40;75.10
59234;DHT22;60776;51.702;7.462;2023-09-12T13:45:36;32.40;75.50
59234;DHT22;60776;51.702;7.462;2023-09-12T13:48:03;32.20;75.10
59234;DHT22;60776;51.702;7.462;2023-09-12T13:50:30;32.10;75.80
59234;DHT22;60776;51.702;7.462;2023-09-12T13:53:01;32.00;75.00
59234;DHT22;60776;51.702;7.462;2023-09-12T13:55:35;31.80;74.90
59234;DHT22;60776;51.702;7.462;2023-09-12T13:58:05;31.70;75.80
59234;DHT22;60776;51.702;7.462;2023-09-12T14:00:31;31.40;76.90
59234;DHT22;60776;51.702;7.462;2023-09-12T14:02:57;31.30;78.40
59234;DHT22;60776;51.702;7.462;2023-09-12T14:05:23;31.10;78.30
59234;DHT22;60776;51.702;7.462;2023-09-12T14:07:50;30.70;78.40
59234;DHT22;60776;51.702;7.462;2023-09-12T14:10:16;30.30;78.90
59234;DHT22;60776;51.702;7.462;2023-09-12T14:12:42;30.10;82.60
59234;DHT22;60776;51.702;7.462;2023-09-12T14:15:10;30.00;85.60
59234;DHT22;60776;51.702;7.462;2023-09-12T14:17:36;30.00;89.50
59234;DHT22;60776;51.702;7.462;2023-09-12T14:20:02;29.90;89.40
59234;DHT22;60776;51.702;7.462;2023-09-12T14:22:28;29.80;89.80
59234;DHT22;60776;51.702;7.462;2023-09-12T14:24:55;29.70;91.50
59234;DHT22;60776;51.702;7.462;2023-09-12T14:27:20;29.70;92.50
59234;DHT22;60776;51.702;7.462;2023-09-12T14:29:46;29.80;92.20
59234;DHT22;60776;51.702;7.462;2023-09-12T14:32:14;29.90;92.10
59234;DHT22;60776;51.702;7.462;2023-09-12T14:34:40;29.90;91.60
59234;DHT22;60776;51.702;7.462;2023-09-12T14:37:06;29.90;91.80
59234;DHT22;60776;51.702;7.462;2023-09-12T14:39:36;29.70;91.20
59234;DHT22;60776;51.702;7.462;2023-09-12T14:42:02;29.70;91.90
59234;DHT22;60776;51.702;7.462;2023-09-12T14:44:33;29.60;92.10
59234;DHT22;60776;51.702;7.462;2023-09-12T14:46:59;29.70;91.90
59234;DHT22;60776;51.702;7.462;2023-09-12T14:49:25;29.70;92.00
59234;DHT22;60776;51.702;7.462;2023-09-12T14:51:50;29.70;92.30
59234;DHT22;60776;51.702;7.462;2023-09-12T14:54:16;29.70;93.30
59234;DHT22;60776;51.702;7.462;2023-09-12T14:56:44;29.60;93.50
59234;DHT22;60776;51.702;7.462;2023-09-12T14:59:10;29.60;94.60
59234;DHT22;60776;51.702;7.462;2023-09-12T15:01:37;29.60;94.20
59234;DHT22;60776;51.702;7.462;2023-09-12T15:04:03;29.60;94.00
59234;DHT22;60776;51.702;7.462;2023-09-12T15:06:29;29.50;94.10
59234;DHT22;60776;51.702;7.462;2023-09-12T15:08:58;29.50;94.00
59234;DHT22;60776;51.702;7.462;2023-09-12T15:11:24;29.40;93.60
59234;DHT22;60776;51.702;7.462;2023-09-12T15:13:50;29.30;94.20
59234;DHT22;60776;51.702;7.462;2023-09-12T15:16:18;29.30;94.50
59234;DHT22;60776;51.702;7.462;2023-09-12T15:18:43;29.20;94.50
59234;DHT22;60776;51.702;7.462;2023-09-12T15:21:09;29.20;94.10
59234;DHT22;60776;51.702;7.462;2023-09-12T15:23:35;29.10;94.90
59234;DHT22;60776;51.702;7.462;2023-09-12T15:26:00;29.10;96.00
59234;DHT22;60776;51.702;7.462;2023-09-12T15:28:26;29.00;95.70
59234;DHT22;60776;51.702;7.462;2023-09-12T15:30:52;29.00;96.50
59234;DHT22;60776;51.702;7.462;2023-09-12T15:33:19;29.00;95.90
59234;DHT22;60776;51.702;7.462;2023-09-12T15:35:48;28.80;96.30
59234;DHT22;60776;51.702;7.462;2023-09-12T15:38:14;28.80;96.60
59234;DHT22;60776;51.702;7.462;2023-09-12T15:40:40;28.80;97.70
59234;DHT22;60776;51.702;7.462;2023-09-12T15:43:06;28.70;98.70
59234;DHT22;60776;51.702;7.462;2023-09-12T15:45:32;28.70;99.90
59234;DHT22;60776;51.702;7.462;2023-09-12T15:47:57;28.50;99.90